createdAt,value
2022-10-01T00:01:55.827Z,11.03
2022-10-01T00:12:04.458Z,11.09
2022-10-01T00:22:12.036Z,10.77
2022-10-01T00:32:18.716Z,10.92
2022-10-01T00:42:25.358Z,9.31
2022-10-01T00:52:33.230Z,8.74
2022-10-01T01:02:39.907Z,10.14
2022-10-01T01:12:46.690Z,8.89
2022-10-01T01:22:53.327Z,9.89
2022-10-01T01:32:59.968Z,11.44
2022-10-01T01:43:06.752Z,9.56
2022-10-01T01:53:14.785Z,11.5
2022-10-01T02:03:21.512Z,12.46
2022-10-01T02:13:28.173Z,9.86
2022-10-01T02:23:34.768Z,12.43
2022-10-01T02:33:42.831Z,8.14
2022-10-01T02:43:48.969Z,8.7
2022-10-01T02:53:55.577Z,9.14
2022-10-01T03:04:02.241Z,6.19
2022-10-01T03:14:08.863Z,11.21
2022-10-01T03:24:15.528Z,13.2
2022-10-01T03:34:22.132Z,9.27
2022-10-01T03:44:28.839Z,9.69
2022-10-01T03:54:35.565Z,11.81
2022-10-01T04:04:42.990Z,5.79
2022-10-01T04:14:49.663Z,9.4
2022-10-01T04:24:56.309Z,10.62
2022-10-01T04:35:02.964Z,10.42
2022-10-01T04:45:09.579Z,5.7
2022-10-01T04:55:16.860Z,8.18
2022-10-01T05:05:24.266Z,8.44
2022-10-01T05:15:31.600Z,7.55
2022-10-01T05:25:39.018Z,6.54
2022-10-01T05:35:46.442Z,6.61
2022-10-01T05:45:53.978Z,9.28
2022-10-01T05:56:01.432Z,8.34
2022-10-01T06:06:08.999Z,6.64
2022-10-01T06:16:16.813Z,10.67
2022-10-01T06:26:24.232Z,6.19
2022-10-01T06:36:31.673Z,5.53
2022-10-01T06:46:39.187Z,5.2
2022-10-01T06:56:47.880Z,5.96
2022-10-01T07:06:55.324Z,4.24
2022-10-01T07:17:02.778Z,4.56
2022-10-01T07:27:11.557Z,5.35
2022-10-01T07:37:19.142Z,5.19
2022-10-01T07:47:26.549Z,4.42
2022-10-01T07:57:35.805Z,4.9
2022-10-01T08:07:43.238Z,3.51
2022-10-01T08:17:50.719Z,3.31
2022-10-01T08:27:58.280Z,3.21
2022-10-01T08:38:05.702Z,3.05
2022-10-01T08:48:13.373Z,5.02
2022-10-01T08:58:20.939Z,4.56
2022-10-01T09:08:28.426Z,5.35
2022-10-01T09:18:36.028Z,3.98
2022-10-01T09:28:44.842Z,6.2
2022-10-01T09:38:53.129Z,4.48
2022-10-01T09:49:00.665Z,4.12
2022-10-01T09:59:08.182Z,6.21
2022-10-01T10:09:15.987Z,10.14
2022-10-01T10:19:23.440Z,5.88
2022-10-01T10:29:31.211Z,6.24
2022-10-01T10:39:38.620Z,4.2
2022-10-01T10:49:46.285Z,4.41
2022-10-01T10:59:53.796Z,6.73
2022-10-01T11:10:01.334Z,6.12
2022-10-01T11:20:08.907Z,3.27
2022-10-01T11:30:15.942Z,2.92
2022-10-01T11:40:23.524Z,3.27
2022-10-01T11:50:31.000Z,6.6
2022-10-01T12:00:38.208Z,4.5
2022-10-01T12:10:49.158Z,3.05
2022-10-01T12:20:46.654Z,3.52
2022-10-01T12:30:54.057Z,3.17
2022-10-01T12:41:01.533Z,4.22
2022-10-01T12:51:09.077Z,2.31
2022-10-01T13:01:17.643Z,3.34
2022-10-01T13:11:26.108Z,6.07
2022-10-01T13:21:33.722Z,4.81
2022-10-01T13:31:42.268Z,3.73
2022-10-01T13:41:50.034Z,4.03
2022-10-01T13:52:00.756Z,3.59
2022-10-01T14:02:00.768Z,3.8
2022-10-01T14:12:00.476Z,4.19
2022-10-01T14:22:08.432Z,2.85
2022-10-01T14:32:16.889Z,4.91
2022-10-01T14:42:26.690Z,2.77
2022-10-01T14:52:34.264Z,4.69
2022-10-01T15:02:41.814Z,3.21
2022-10-01T15:12:49.268Z,3.84
2022-10-01T15:23:01.386Z,5.81
2022-10-01T15:32:58.066Z,4.14
2022-10-01T15:43:05.662Z,4.65
2022-10-01T15:53:13.208Z,3.55
2022-10-01T16:03:20.645Z,3.21
2022-10-01T16:13:28.090Z,3.72
2022-10-01T16:23:35.698Z,3.46
2022-10-01T16:33:43.162Z,4.04
2022-10-01T16:43:50.576Z,3.65
2022-10-01T16:53:57.975Z,4.76
2022-10-01T17:04:05.473Z,3.78
2022-10-01T17:14:12.991Z,4.13
2022-10-01T17:24:20.496Z,5.2
2022-10-01T17:34:27.918Z,4.45
2022-10-01T17:44:35.485Z,4.9
2022-10-01T17:54:42.926Z,3.73
2022-10-01T18:04:53.525Z,4.82
2022-10-01T18:14:52.282Z,3.44
2022-10-01T18:25:04.313Z,4.1
2022-10-01T18:35:05.001Z,3
2022-10-01T18:45:12.375Z,4.45
2022-10-01T18:55:24.298Z,6.63
2022-10-01T19:05:21.943Z,6.88
2022-10-01T19:15:30.024Z,5.67
2022-10-01T19:25:39.924Z,5.31
2022-10-01T19:35:48.481Z,6.63
2022-10-01T19:46:02.965Z,4.4
2022-10-01T19:56:02.968Z,5.62
2022-10-01T20:06:01.302Z,6.02
2022-10-01T20:16:10.000Z,9.05
2022-10-01T20:26:19.120Z,7
2022-10-01T20:36:26.626Z,6.03
2022-10-01T20:46:41.147Z,8.38
2022-10-01T20:56:39.137Z,7.24
2022-10-01T21:06:47.668Z,8.38
2022-10-01T21:16:55.212Z,8.07
2022-10-01T21:27:03.437Z,9.35
2022-10-01T21:37:11.007Z,20.62
2022-10-01T21:47:18.569Z,12.44
2022-10-01T21:57:29.494Z,12.43
2022-10-01T22:07:39.729Z,20.11
2022-10-01T22:17:47.278Z,8.9
2022-10-01T22:27:54.858Z,9.99
2022-10-01T22:38:03.413Z,10.43
2022-10-01T22:48:11.064Z,14.12
2022-10-01T22:58:18.595Z,11.4
2022-10-01T23:08:26.496Z,8.02
2022-10-01T23:18:33.127Z,8.61
2022-10-01T23:28:39.800Z,11.02
2022-10-01T23:38:47.538Z,7.84
2022-10-01T23:48:54.240Z,6.51
2022-10-01T23:59:00.786Z,8.38
